메인 페이지
METAR-TAF:

METAR-TAF

공항 :

셰레메티예보 국제공항

모스크바 Sheremetyevo, 러시아

위도: 55-58N, 경도: 037-25E, 고도: 190m

현재 날씨관측

예보는 42분 전, 10:00시(UTC)에 발표되었습니다.
서남서10kt풍과 서남서풍을 오가는
온도 2°C
습도 80%
기압 1024 hPa
시정 10km 이상
고도 1000ft 상공 구름 보통

METAR: UUEE 181000Z 24005MPS 190V250 9999 SCT010 02/M01 Q1024 R24L/290051 R24R/190057 NOSIG

시각: 13:42 (10:42 UTC)

예보

예보는 2 시간 51분 전, 07:51시(UTC)에 발표되었습니다.
예보 대상 시간: 18일 09시부터 19일 09시까지 (UTC)
남서10kt, 순간 최대 풍속 19kt
시정: 9000m
고도 800ft 상공 구름 많음
일시적
18일 20시부터 19일 05시까지 (UTC)
고도 400ft 상공 구름 많음

TAF: UUEE 180751Z 1809/1909 23005G10MPS 9000 BKN008 TX01/1812Z TNM02/1904Z TEMPO 1820/1905 BKN004

4,000개 이상의 공항 관측 자료 및 예보 (METAR 및 TAF 보고).

지도상에서 검색 가능한 기상관측소가 노란 점과 빨간 점으로 표시되어 있습니다.

기상관측소 명을 보려면 표시 위로 마우스를 이동하세요.

날씨 관측과 예보를 보려면 클릭하세요.

지도 변경 : 확대하려면 엑스 표시가 있는 녹색 버튼, 축소하려면 빼기 표시가 있는 녹색 버튼, 다음 페이지의 지도를 보려면 녹색 화살표를 클릭하세요.


METAR-TAF: